sensor_id;sensor_type;location;lat;lon;timestamp;noise_LAeq;noise_LA_min;noise_LA_max;noise_LA01;noise_LA95
70077;Laerm;57448;51.490;5.436;2023-03-14T00:00:29;40.79;35.47;55.59;;
70077;Laerm;57448;51.490;5.436;2023-03-14T00:02:31;38.92;34.25;52.97;;
70077;Laerm;57448;51.490;5.436;2023-03-14T00:04:32;40.33;35.56;53.69;;
70077;Laerm;57448;51.490;5.436;2023-03-14T00:06:34;39.79;35.27;48.38;;
70077;Laerm;57448;51.490;5.436;2023-03-14T00:08:37;38.71;33.59;52.01;;
70077;Laerm;57448;51.490;5.436;2023-03-14T00:10:38;38.58;34.39;46.28;;
70077;Laerm;57448;51.490;5.436;2023-03-14T00:12:40;40.80;35.36;49.93;;
70077;Laerm;57448;51.490;5.436;2023-03-14T00:14:42;46.82;37.97;71.74;;
70077;Laerm;57448;51.490;5.436;2023-03-14T00:16:45;51.49;39.89;76.01;;
70077;Laerm;57448;51.490;5.436;2023-03-14T00:18:47;49.71;39.62;72.41;;
70077;Laerm;57448;51.490;5.436;2023-03-14T00:20:48;46.09;40.04;55.67;;
70077;Laerm;57448;51.490;5.436;2023-03-14T00:22:49;46.41;39.72;56.91;;
70077;Laerm;57448;51.490;5.436;2023-03-14T00:24:52;45.21;38.23;55.02;;
70077;Laerm;57448;51.490;5.436;2023-03-14T00:26:53;48.18;38.51;64.91;;
70077;Laerm;57448;51.490;5.436;2023-03-14T00:28:55;46.66;40.08;65.34;;
70077;Laerm;57448;51.490;5.436;2023-03-14T00:30:56;45.58;37.61;73.45;;
70077;Laerm;57448;51.490;5.436;2023-03-14T00:32:57;41.35;35.75;58.13;;
70077;Laerm;57448;51.490;5.436;2023-03-14T00:34:59;45.18;39.36;60.09;;
70077;Laerm;57448;51.490;5.436;2023-03-14T00:37:00;46.91;40.20;61.04;;
70077;Laerm;57448;51.490;5.436;2023-03-14T00:39:02;47.58;38.85;64.72;;
70077;Laerm;57448;51.490;5.436;2023-03-14T00:41:05;45.36;35.73;62.59;;
70077;Laerm;57448;51.490;5.436;2023-03-14T00:43:07;41.63;35.81;53.89;;
70077;Laerm;57448;51.490;5.436;2023-03-14T00:45:09;42.67;36.21;59.67;;
70077;Laerm;57448;51.490;5.436;2023-03-14T00:47:10;38.54;34.66;46.39;;
70077;Laerm;57448;51.490;5.436;2023-03-14T00:49:11;40.65;34.73;55.43;;
70077;Laerm;57448;51.490;5.436;2023-03-14T00:51:13;41.87;35.66;58.36;;
70077;Laerm;57448;51.490;5.436;2023-03-14T00:53:15;42.11;37.80;50.78;;
70077;Laerm;57448;51.490;5.436;2023-03-14T00:55:16;46.51;39.00;64.04;;
70077;Laerm;57448;51.490;5.436;2023-03-14T00:57:19;45.42;38.74;58.84;;
70077;Laerm;57448;51.490;5.436;2023-03-14T00:59:20;42.37;38.21;57.01;;
70077;Laerm;57448;51.490;5.436;2023-03-14T01:01:22;44.54;39.52;52.48;;
70077;Laerm;57448;51.490;5.436;2023-03-14T01:03:23;42.94;37.35;53.72;;
70077;Laerm;57448;51.490;5.436;2023-03-14T01:05:25;42.35;36.71;53.14;;
70077;Laerm;57448;51.490;5.436;2023-03-14T01:07:26;40.54;35.65;51.14;;
70077;Laerm;57448;51.490;5.436;2023-03-14T01:09:27;40.28;34.19;53.11;;
70077;Laerm;57448;51.490;5.436;2023-03-14T01:11:29;39.82;35.20;46.26;;
70077;Laerm;57448;51.490;5.436;2023-03-14T01:13:32;40.34;34.96;52.79;;
70077;Laerm;57448;51.490;5.436;2023-03-14T01:15:33;39.74;35.70;52.56;;
70077;Laerm;57448;51.490;5.436;2023-03-14T01:17:35;39.52;34.61;52.09;;
70077;Laerm;57448;51.490;5.436;2023-03-14T01:19:37;41.07;35.34;55.55;;
70077;Laerm;57448;51.490;5.436;2023-03-14T01:21:39;41.40;35.02;56.04;;
70077;Laerm;57448;51.490;5.436;2023-03-14T01:23:40;44.49;37.28;69.84;;
70077;Laerm;57448;51.490;5.436;2023-03-14T01:25:41;41.15;35.75;53.50;;
70077;Laerm;57448;51.490;5.436;2023-03-14T01:27:43;43.93;35.92;64.85;;
70077;Laerm;57448;51.490;5.436;2023-03-14T01:29:46;39.89;34.57;54.75;;
70077;Laerm;57448;51.490;5.436;2023-03-14T01:31:47;44.03;35.07;53.38;;
70077;Laerm;57448;51.490;5.436;2023-03-14T01:33:49;42.14;35.92;50.86;;
70077;Laerm;57448;51.490;5.436;2023-03-14T01:35:50;45.64;36.68;65.50;;
70077;Laerm;57448;51.490;5.436;2023-03-14T01:37:52;45.88;36.57;63.55;;
70077;Laerm;57448;51.490;5.436;2023-03-14T01:39:53;39.76;35.28;49.71;;
70077;Laerm;57448;51.490;5.436;2023-03-14T01:41:54;42.81;34.66;60.05;;
70077;Laerm;57448;51.490;5.436;2023-03-14T01:43:55;40.45;35.44;58.96;;
70077;Laerm;57448;51.490;5.436;2023-03-14T01:46:14;40.07;35.64;47.67;;
70077;Laerm;57448;51.490;5.436;2023-03-14T01:48:18;42.01;36.08;63.52;;
70077;Laerm;57448;51.490;5.436;2023-03-14T01:50:20;41.90;36.12;58.54;;
70077;Laerm;57448;51.490;5.436;2023-03-14T01:52:22;41.87;36.63;63.25;;
70077;Laerm;57448;51.490;5.436;2023-03-14T01:54:24;45.85;37.46;63.25;;
70077;Laerm;57448;51.490;5.436;2023-03-14T01:56:27;42.50;34.23;56.55;;
70077;Laerm;57448;51.490;5.436;2023-03-14T01:58:29;46.60;38.40;66.70;;
70077;Laerm;57448;51.490;5.436;2023-03-14T02:00:32;41.55;37.04;50.71;;
70077;Laerm;57448;51.490;5.436;2023-03-14T02:02:35;41.89;36.40;55.27;;
70077;Laerm;57448;51.490;5.436;2023-03-14T02:04:36;43.49;38.01;56.96;;
70077;Laerm;57448;51.490;5.436;2023-03-14T02:06:40;43.54;37.25;66.03;;
70077;Laerm;57448;51.490;5.436;2023-03-14T02:08:43;43.66;36.54;63.83;;
70077;Laerm;57448;51.490;5.436;2023-03-14T02:10:48;41.69;35.55;54.98;;
70077;Laerm;57448;51.490;5.436;2023-03-14T02:12:50;46.67;37.94;60.96;;
70077;Laerm;57448;51.490;5.436;2023-03-14T02:14:54;46.12;38.71;64.37;;
70077;Laerm;57448;51.490;5.436;2023-03-14T02:16:55;40.75;35.86;48.93;;
70077;Laerm;57448;51.490;5.436;2023-03-14T02:18:58;41.30;36.16;56.25;;
70077;Laerm;57448;51.490;5.436;2023-03-14T02:21:00;44.37;35.43;62.29;;
70077;Laerm;57448;51.490;5.436;2023-03-14T02:23:02;41.53;37.06;57.52;;
70077;Laerm;57448;51.490;5.436;2023-03-14T02:25:06;44.58;37.39;57.38;;
70077;Laerm;57448;51.490;5.436;2023-03-14T02:27:11;41.23;36.07;53.99;;
70077;Laerm;57448;51.490;5.436;2023-03-14T02:29:13;41.89;34.89;52.69;;
70077;Laerm;57448;51.490;5.436;2023-03-14T02:31:15;40.52;34.92;51.01;;
70077;Laerm;57448;51.490;5.436;2023-03-14T02:33:18;41.20;35.70;57.08;;
70077;Laerm;57448;51.490;5.436;2023-03-14T02:35:21;42.28;35.95;54.36;;
70077;Laerm;57448;51.490;5.436;2023-03-14T02:37:24;39.97;33.81;52.24;;
70077;Laerm;57448;51.490;5.436;2023-03-14T02:39:29;43.03;36.92;58.18;;
70077;Laerm;57448;51.490;5.436;2023-03-14T02:41:32;47.75;34.65;75.70;;
70077;Laerm;57448;51.490;5.436;2023-03-14T02:43:35;39.04;34.97;45.17;;
70077;Laerm;57448;51.490;5.436;2023-03-14T02:45:41;39.10;34.47;51.47;;
70077;Laerm;57448;51.490;5.436;2023-03-14T02:47:43;38.75;33.53;46.46;;
70077;Laerm;57448;51.490;5.436;2023-03-14T02:49:46;39.47;34.15;50.47;;
70077;Laerm;57448;51.490;5.436;2023-03-14T02:51:48;37.94;33.07;54.57;;
70077;Laerm;57448;51.490;5.436;2023-03-14T02:53:50;37.88;33.75;49.78;;
70077;Laerm;57448;51.490;5.436;2023-03-14T02:55:51;38.73;33.95;54.42;;
70077;Laerm;57448;51.490;5.436;2023-03-14T02:57:53;39.28;34.96;48.62;;
70077;Laerm;57448;51.490;5.436;2023-03-14T02:59:58;38.22;34.26;51.23;;
70077;Laerm;57448;51.490;5.436;2023-03-14T03:02:00;39.31;34.79;46.86;;
70077;Laerm;57448;51.490;5.436;2023-03-14T03:04:02;39.92;34.57;51.45;;
70077;Laerm;57448;51.490;5.436;2023-03-14T03:06:04;40.58;34.47;50.00;;
70077;Laerm;57448;51.490;5.436;2023-03-14T03:08:05;41.30;35.03;56.28;;
70077;Laerm;57448;51.490;5.436;2023-03-14T03:10:07;41.81;36.09;57.65;;
70077;Laerm;57448;51.490;5.436;2023-03-14T03:12:08;40.33;34.61;53.08;;
70077;Laerm;57448;51.490;5.436;2023-03-14T03:14:10;40.95;36.07;47.84;;
70077;Laerm;57448;51.490;5.436;2023-03-14T03:16:12;41.32;36.54;49.79;;
70077;Laerm;57448;51.490;5.436;2023-03-14T03:18:15;40.56;35.94;46.52;;
70077;Laerm;57448;51.490;5.436;2023-03-14T03:20:16;40.86;36.98;50.28;;
70077;Laerm;57448;51.490;5.436;2023-03-14T03:22:17;41.69;36.63;55.47;;
70077;Laerm;57448;51.490;5.436;2023-03-14T03:24:18;42.38;35.71;57.88;;
70077;Laerm;57448;51.490;5.436;2023-03-14T03:26:20;41.79;35.85;53.61;;
70077;Laerm;57448;51.490;5.436;2023-03-14T03:28:21;41.73;37.31;52.49;;
70077;Laerm;57448;51.490;5.436;2023-03-14T03:30:23;40.40;34.96;46.59;;
70077;Laerm;57448;51.490;5.436;2023-03-14T03:32:25;41.07;35.85;55.10;;
70077;Laerm;57448;51.490;5.436;2023-03-14T03:34:27;39.79;35.46;51.87;;
70077;Laerm;57448;51.490;5.436;2023-03-14T03:36:28;39.10;34.98;48.70;;
70077;Laerm;57448;51.490;5.436;2023-03-14T03:38:29;39.58;35.61;51.57;;
70077;Laerm;57448;51.490;5.436;2023-03-14T03:40:31;39.26;35.62;49.81;;
70077;Laerm;57448;51.490;5.436;2023-03-14T03:42:32;39.84;36.09;49.17;;
70077;Laerm;57448;51.490;5.436;2023-03-14T03:44:34;40.72;35.53;48.78;;
70077;Laerm;57448;51.490;5.436;2023-03-14T03:46:36;41.71;36.81;51.46;;
70077;Laerm;57448;51.490;5.436;2023-03-14T03:48:38;41.45;37.22;48.59;;
70077;Laerm;57448;51.490;5.436;2023-03-14T03:50:43;41.52;36.23;55.02;;
70077;Laerm;57448;51.490;5.436;2023-03-14T03:52:45;40.66;36.30;50.12;;
70077;Laerm;57448;51.490;5.436;2023-03-14T03:54:46;41.13;37.23;54.65;;
70077;Laerm;57448;51.490;5.436;2023-03-14T03:56:47;41.69;37.30;50.96;;
70077;Laerm;57448;51.490;5.436;2023-03-14T03:58:49;43.97;36.81;62.84;;
70077;Laerm;57448;51.490;5.436;2023-03-14T04:00:50;42.39;36.99;51.95;;
70077;Laerm;57448;51.490;5.436;2023-03-14T04:02:51;42.42;37.86;56.00;;
70077;Laerm;57448;51.490;5.436;2023-03-14T04:04:54;42.37;37.72;55.45;;
70077;Laerm;57448;51.490;5.436;2023-03-14T04:06:55;40.77;36.54;49.38;;
70077;Laerm;57448;51.490;5.436;2023-03-14T04:08:57;42.64;38.91;54.38;;
70077;Laerm;57448;51.490;5.436;2023-03-14T04:10:59;41.51;37.75;47.61;;
70077;Laerm;57448;51.490;5.436;2023-03-14T04:13:01;42.78;38.47;53.54;;
70077;Laerm;57448;51.490;5.436;2023-03-14T04:15:02;43.76;39.17;55.52;;
70077;Laerm;57448;51.490;5.436;2023-03-14T04:17:03;46.26;41.30;57.12;;
70077;Laerm;57448;51.490;5.436;2023-03-14T04:19:05;46.54;41.68;54.60;;
70077;Laerm;57448;51.490;5.436;2023-03-14T04:21:07;46.52;41.49;59.55;;
70077;Laerm;57448;51.490;5.436;2023-03-14T04:23:09;49.76;41.62;73.22;;
70077;Laerm;57448;51.490;5.436;2023-03-14T04:25:10;46.18;41.66;53.14;;
70077;Laerm;57448;51.490;5.436;2023-03-14T04:27:11;46.35;41.23;54.74;;
70077;Laerm;57448;51.490;5.436;2023-03-14T04:29:14;48.57;42.37;60.88;;
70077;Laerm;57448;51.490;5.436;2023-03-14T04:31:16;48.24;43.01;58.24;;
70077;Laerm;57448;51.490;5.436;2023-03-14T04:33:18;47.49;42.67;53.58;;
70077;Laerm;57448;51.490;5.436;2023-03-14T04:35:20;46.37;41.66;54.51;;
70077;Laerm;57448;51.490;5.436;2023-03-14T04:37:22;45.76;41.76;52.00;;
70077;Laerm;57448;51.490;5.436;2023-03-14T04:39:24;45.28;41.35;51.64;;
70077;Laerm;57448;51.490;5.436;2023-03-14T04:41:25;47.82;42.45;60.88;;
70077;Laerm;57448;51.490;5.436;2023-03-14T04:43:26;47.99;43.41;62.77;;
70077;Laerm;57448;51.490;5.436;2023-03-14T04:45:28;48.55;42.90;58.33;;
70077;Laerm;57448;51.490;5.436;2023-03-14T04:47:29;45.83;42.21;51.60;;
70077;Laerm;57448;51.490;5.436;2023-03-14T04:49:30;46.57;43.26;52.70;;
70077;Laerm;57448;51.490;5.436;2023-03-14T04:51:31;46.40;42.99;59.03;;
70077;Laerm;57448;51.490;5.436;2023-03-14T04:53:34;46.44;42.70;54.21;;
70077;Laerm;57448;51.490;5.436;2023-03-14T04:55:36;46.48;41.57;51.61;;
70077;Laerm;57448;51.490;5.436;2023-03-14T04:57:38;46.39;42.09;56.53;;
70077;Laerm;57448;51.490;5.436;2023-03-14T04:59:39;46.85;42.61;58.23;;
70077;Laerm;57448;51.490;5.436;2023-03-14T05:01:40;48.51;43.08;58.37;;
70077;Laerm;57448;51.490;5.436;2023-03-14T05:03:42;47.24;43.64;55.22;;
70077;Laerm;57448;51.490;5.436;2023-03-14T05:05:43;46.46;42.95;52.33;;
70077;Laerm;57448;51.490;5.436;2023-03-14T05:07:45;47.34;42.72;54.29;;
70077;Laerm;57448;51.490;5.436;2023-03-14T05:09:47;46.89;43.13;53.00;;
70077;Laerm;57448;51.490;5.436;2023-03-14T05:11:49;46.55;43.07;52.62;;
70077;Laerm;57448;51.490;5.436;2023-03-14T05:13:50;46.86;43.80;51.15;;
70077;Laerm;57448;51.490;5.436;2023-03-14T05:15:51;47.46;44.10;51.43;;
70077;Laerm;57448;51.490;5.436;2023-03-14T05:17:53;47.28;44.19;52.75;;
70077;Laerm;57448;51.490;5.436;2023-03-14T05:19:55;47.39;44.65;53.59;;
70077;Laerm;57448;51.490;5.436;2023-03-14T05:21:56;48.54;44.67;53.81;;
70077;Laerm;57448;51.490;5.436;2023-03-14T05:23:57;48.60;44.98;55.36;;
70077;Laerm;57448;51.490;5.436;2023-03-14T05:26:00;49.16;45.59;54.80;;
70077;Laerm;57448;51.490;5.436;2023-03-14T05:28:01;49.18;45.42;55.44;;
70077;Laerm;57448;51.490;5.436;2023-03-14T05:30:03;48.03;44.92;54.76;;
70077;Laerm;57448;51.490;5.436;2023-03-14T05:32:04;48.79;45.67;54.44;;
70077;Laerm;57448;51.490;5.436;2023-03-14T05:34:05;53.23;44.42;75.15;;
70077;Laerm;57448;51.490;5.436;2023-03-14T05:36:07;52.98;45.58;71.55;;
70077;Laerm;57448;51.490;5.436;2023-03-14T05:38:09;51.84;45.03;66.29;;
70077;Laerm;57448;51.490;5.436;2023-03-14T05:40:10;51.91;44.90;65.66;;
70077;Laerm;57448;51.490;5.436;2023-03-14T05:42:13;50.65;44.70;65.31;;
70077;Laerm;57448;51.490;5.436;2023-03-14T05:44:14;48.59;45.53;55.26;;
70077;Laerm;57448;51.490;5.436;2023-03-14T05:46:16;47.85;44.18;55.72;;
70077;Laerm;57448;51.490;5.436;2023-03-14T05:48:17;49.03;45.00;62.36;;
70077;Laerm;57448;51.490;5.436;2023-03-14T05:50:18;49.12;45.42;64.66;;
70077;Laerm;57448;51.490;5.436;2023-03-14T05:52:20;49.09;45.09;68.16;;
70077;Laerm;57448;51.490;5.436;2023-03-14T05:54:22;51.79;45.14;64.65;;
70077;Laerm;57448;51.490;5.436;2023-03-14T05:56:23;49.89;45.16;63.49;;
70077;Laerm;57448;51.490;5.436;2023-03-14T05:58:26;48.31;44.76;60.20;;
70077;Laerm;57448;51.490;5.436;2023-03-14T06:00:27;48.77;44.71;55.77;;
70077;Laerm;57448;51.490;5.436;2023-03-14T06:02:28;49.19;44.62;58.95;;
70077;Laerm;57448;51.490;5.436;2023-03-14T06:04:30;48.91;45.30;61.36;;
70077;Laerm;57448;51.490;5.436;2023-03-14T06:06:31;49.96;46.06;56.12;;
70077;Laerm;57448;51.490;5.436;2023-03-14T06:08:32;50.21;45.98;67.27;;
70077;Laerm;57448;51.490;5.436;2023-03-14T06:10:34;50.29;47.23;56.53;;
70077;Laerm;57448;51.490;5.436;2023-03-14T06:12:36;51.34;47.52;65.03;;
70077;Laerm;57448;51.490;5.436;2023-03-14T06:14:38;50.19;46.69;69.20;;
70077;Laerm;57448;51.490;5.436;2023-03-14T06:16:40;50.32;46.95;61.79;;
70077;Laerm;57448;51.490;5.436;2023-03-14T06:18:41;52.39;48.40;63.82;;
70077;Laerm;57448;51.490;5.436;2023-03-14T06:20:42;52.40;47.23;67.50;;
70077;Laerm;57448;51.490;5.436;2023-03-14T06:22:44;52.94;48.87;67.82;;
70077;Laerm;57448;51.490;5.436;2023-03-14T06:24:45;54.17;48.62;66.93;;
70077;Laerm;57448;51.490;5.436;2023-03-14T06:26:46;52.63;47.26;65.51;;
70077;Laerm;57448;51.490;5.436;2023-03-14T06:28:48;53.45;47.30;67.04;;
70077;Laerm;57448;51.490;5.436;2023-03-14T06:30:52;51.96;48.12;60.85;;
70077;Laerm;57448;51.490;5.436;2023-03-14T06:32:53;51.00;47.61;64.66;;
70077;Laerm;57448;51.490;5.436;2023-03-14T06:34:55;53.03;48.31;67.34;;
70077;Laerm;57448;51.490;5.436;2023-03-14T06:36:57;54.34;48.43;67.89;;
70077;Laerm;57448;51.490;5.436;2023-03-14T06:38:58;51.39;48.81;57.58;;
70077;Laerm;57448;51.490;5.436;2023-03-14T06:41:02;52.90;49.49;72.82;;
70077;Laerm;57448;51.490;5.436;2023-03-14T06:43:04;53.38;48.93;69.30;;
70077;Laerm;57448;51.490;5.436;2023-03-14T06:45:06;52.52;48.28;66.95;;
70077;Laerm;57448;51.490;5.436;2023-03-14T06:47:08;50.77;47.36;60.59;;
70077;Laerm;57448;51.490;5.436;2023-03-14T06:49:10;53.96;48.11;76.60;;
70077;Laerm;57448;51.490;5.436;2023-03-14T06:51:11;51.68;47.45;63.41;;
70077;Laerm;57448;51.490;5.436;2023-03-14T06:53:13;51.73;47.63;62.25;;
70077;Laerm;57448;51.490;5.436;2023-03-14T06:55:14;51.16;47.82;58.74;;
70077;Laerm;57448;51.490;5.436;2023-03-14T06:57:15;51.35;48.01;56.83;;
70077;Laerm;57448;51.490;5.436;2023-03-14T06:59:17;50.82;46.99;63.21;;
70077;Laerm;57448;51.490;5.436;2023-03-14T07:01:20;51.87;47.40;63.04;;
70077;Laerm;57448;51.490;5.436;2023-03-14T07:03:23;52.22;49.05;61.07;;
70077;Laerm;57448;51.490;5.436;2023-03-14T07:05:25;52.01;48.78;67.16;;
70077;Laerm;57448;51.490;5.436;2023-03-14T07:07:26;51.49;48.56;55.57;;
70077;Laerm;57448;51.490;5.436;2023-03-14T07:09:27;50.98;47.64;56.33;;
70077;Laerm;57448;51.490;5.436;2023-03-14T07:11:29;51.83;48.66;58.92;;
70077;Laerm;57448;51.490;5.436;2023-03-14T07:13:30;52.58;48.59;61.78;;
70077;Laerm;57448;51.490;5.436;2023-03-14T07:15:31;51.64;48.04;59.64;;
70077;Laerm;57448;51.490;5.436;2023-03-14T07:17:33;51.59;48.28;63.65;;
70077;Laerm;57448;51.490;5.436;2023-03-14T07:19:35;52.72;48.14;72.40;;
70077;Laerm;57448;51.490;5.436;2023-03-14T07:21:37;51.44;47.85;61.26;;
70077;Laerm;57448;51.490;5.436;2023-03-14T07:23:39;50.64;46.72;59.52;;
70077;Laerm;57448;51.490;5.436;2023-03-14T07:25:41;52.24;48.79;58.18;;
70077;Laerm;57448;51.490;5.436;2023-03-14T07:27:42;54.76;47.97;75.90;;
70077;Laerm;57448;51.490;5.436;2023-03-14T07:29:43;53.24;48.85;73.54;;
70077;Laerm;57448;51.490;5.436;2023-03-14T07:31:45;55.19;50.86;60.12;;
70077;Laerm;57448;51.490;5.436;2023-03-14T07:33:46;59.02;53.83;75.66;;
70077;Laerm;57448;51.490;5.436;2023-03-14T07:35:49;58.80;53.93;78.30;;
70077;Laerm;57448;51.490;5.436;2023-03-14T07:37:50;57.09;52.12;63.50;;
70077;Laerm;57448;51.490;5.436;2023-03-14T07:39:52;57.61;52.82;73.67;;
70077;Laerm;57448;51.490;5.436;2023-03-14T07:41:53;57.18;53.84;65.87;;
70077;Laerm;57448;51.490;5.436;2023-03-14T07:43:54;59.74;53.85;65.51;;
70077;Laerm;57448;51.490;5.436;2023-03-14T07:45:56;63.10;55.36;69.98;;
70077;Laerm;57448;51.490;5.436;2023-03-14T07:47:57;60.31;53.40;69.41;;
70077;Laerm;57448;51.490;5.436;2023-03-14T07:49:58;61.25;54.68;80.91;;
70077;Laerm;57448;51.490;5.436;2023-03-14T07:52:01;54.83;52.09;58.31;;
70077;Laerm;57448;51.490;5.436;2023-03-14T07:54:03;56.94;52.60;69.49;;
70077;Laerm;57448;51.490;5.436;2023-03-14T07:56:04;57.00;52.97;72.17;;
70077;Laerm;57448;51.490;5.436;2023-03-14T07:58:06;56.60;52.77;67.03;;
70077;Laerm;57448;51.490;5.436;2023-03-14T08:00:07;56.58;52.01;69.51;;
70077;Laerm;57448;51.490;5.436;2023-03-14T08:02:10;57.44;52.58;67.37;;
70077;Laerm;57448;51.490;5.436;2023-03-14T08:04:11;56.56;53.02;65.15;;
70077;Laerm;57448;51.490;5.436;2023-03-14T08:06:13;55.42;52.31;64.03;;
70077;Laerm;57448;51.490;5.436;2023-03-14T08:08:16;55.54;52.41;62.59;;
70077;Laerm;57448;51.490;5.436;2023-03-14T08:10:17;55.14;51.47;60.15;;
70077;Laerm;57448;51.490;5.436;2023-03-14T08:12:24;54.08;50.47;61.77;;
70077;Laerm;57448;51.490;5.436;2023-03-14T08:14:26;54.11;49.89;60.72;;
70077;Laerm;57448;51.490;5.436;2023-03-14T08:16:29;54.40;50.72;59.74;;
70077;Laerm;57448;51.490;5.436;2023-03-14T08:18:30;55.82;52.28;66.33;;
70077;Laerm;57448;51.490;5.436;2023-03-14T08:20:32;57.35;52.33;67.77;;
70077;Laerm;57448;51.490;5.436;2023-03-14T08:22:33;57.66;52.94;76.88;;
70077;Laerm;57448;51.490;5.436;2023-03-14T08:24:36;56.99;53.30;65.30;;
70077;Laerm;57448;51.490;5.436;2023-03-14T08:26:37;58.73;54.00;74.37;;
70077;Laerm;57448;51.490;5.436;2023-03-14T08:28:39;57.18;52.90;66.24;;
70077;Laerm;57448;51.490;5.436;2023-03-14T08:30:40;55.72;51.94;66.27;;
70077;Laerm;57448;51.490;5.436;2023-03-14T08:32:41;56.36;50.92;74.67;;
70077;Laerm;57448;51.490;5.436;2023-03-14T08:34:43;58.70;51.41;77.32;;
70077;Laerm;57448;51.490;5.436;2023-03-14T08:36:44;56.07;51.93;68.61;;
70077;Laerm;57448;51.490;5.436;2023-03-14T08:38:45;56.70;52.04;69.62;;
70077;Laerm;57448;51.490;5.436;2023-03-14T08:40:48;55.96;51.77;69.74;;
70077;Laerm;57448;51.490;5.436;2023-03-14T08:42:50;55.45;51.71;60.94;;
70077;Laerm;57448;51.490;5.436;2023-03-14T08:44:51;55.35;51.68;66.97;;
70077;Laerm;57448;51.490;5.436;2023-03-14T08:46:53;55.82;52.04;65.27;;
70077;Laerm;57448;51.490;5.436;2023-03-14T08:48:54;54.75;50.01;65.75;;
70077;Laerm;57448;51.490;5.436;2023-03-14T08:50:55;53.59;50.19;60.50;;
70077;Laerm;57448;51.490;5.436;2023-03-14T08:52:56;54.19;50.14;62.20;;
70077;Laerm;57448;51.490;5.436;2023-03-14T08:54:59;57.35;51.16;64.43;;
70077;Laerm;57448;51.490;5.436;2023-03-14T08:57:02;58.04;51.32;64.31;;
70077;Laerm;57448;51.490;5.436;2023-03-14T08:59:03;55.32;51.45;73.52;;
70077;Laerm;57448;51.490;5.436;2023-03-14T09:01:05;59.61;49.88;76.66;;
70077;Laerm;57448;51.490;5.436;2023-03-14T09:03:06;56.33;50.38;83.67;;
70077;Laerm;57448;51.490;5.436;2023-03-14T09:05:08;54.17;51.16;59.37;;
70077;Laerm;57448;51.490;5.436;2023-03-14T09:07:10;54.97;50.05;73.66;;
70077;Laerm;57448;51.490;5.436;2023-03-14T09:09:11;57.36;50.15;71.64;;
70077;Laerm;57448;51.490;5.436;2023-03-14T09:11:13;53.30;49.27;59.40;;
70077;Laerm;57448;51.490;5.436;2023-03-14T09:13:16;54.95;49.72;78.41;;
70077;Laerm;57448;51.490;5.436;2023-03-14T09:15:17;55.71;50.30;78.48;;
70077;Laerm;57448;51.490;5.436;2023-03-14T09:17:19;53.66;49.57;60.52;;
70077;Laerm;57448;51.490;5.436;2023-03-14T09:19:20;55.01;49.04;67.55;;
70077;Laerm;57448;51.490;5.436;2023-03-14T09:21:22;54.14;49.85;68.89;;
70077;Laerm;57448;51.490;5.436;2023-03-14T09:23:23;54.77;48.74;67.77;;
70077;Laerm;57448;51.490;5.436;2023-03-14T09:25:24;53.91;48.53;64.81;;
70077;Laerm;57448;51.490;5.436;2023-03-14T09:27:26;55.38;48.47;75.74;;
70077;Laerm;57448;51.490;5.436;2023-03-14T09:29:28;54.33;49.19;61.98;;
70077;Laerm;57448;51.490;5.436;2023-03-14T09:31:30;53.06;48.81;64.55;;
70077;Laerm;57448;51.490;5.436;2023-03-14T09:33:31;54.02;49.87;63.50;;
70077;Laerm;57448;51.490;5.436;2023-03-14T09:35:33;53.75;50.61;60.34;;
70077;Laerm;57448;51.490;5.436;2023-03-14T09:37:34;55.57;52.35;61.21;;
70077;Laerm;57448;51.490;5.436;2023-03-14T09:39:35;54.98;51.61;59.92;;
70077;Laerm;57448;51.490;5.436;2023-03-14T09:41:37;57.48;53.00;64.26;;
70077;Laerm;57448;51.490;5.436;2023-03-14T09:43:41;57.93;53.96;62.54;;
70077;Laerm;57448;51.490;5.436;2023-03-14T09:45:45;65.89;54.13;71.25;;
70077;Laerm;57448;51.490;5.436;2023-03-14T09:47:48;64.42;55.49;74.49;;
70077;Laerm;57448;51.490;5.436;2023-03-14T09:49:50;59.42;54.82;75.31;;
70077;Laerm;57448;51.490;5.436;2023-03-14T09:51:53;58.04;53.37;68.07;;
70077;Laerm;57448;51.490;5.436;2023-03-14T09:53:54;56.57;51.91;63.01;;
70077;Laerm;57448;51.490;5.436;2023-03-14T09:55:56;57.07;52.07;71.25;;
70077;Laerm;57448;51.490;5.436;2023-03-14T09:57:59;57.52;53.37;65.51;;
70077;Laerm;57448;51.490;5.436;2023-03-14T10:00:02;66.86;51.76;81.55;;
70077;Laerm;57448;51.490;5.436;2023-03-14T10:02:14;57.80;53.34;66.41;;
70077;Laerm;57448;51.490;5.436;2023-03-14T10:04:17;56.98;51.85;68.76;;
70077;Laerm;57448;51.490;5.436;2023-03-14T10:06:23;56.10;52.19;63.43;;
70077;Laerm;57448;51.490;5.436;2023-03-14T10:08:25;58.21;50.82;76.87;;
70077;Laerm;57448;51.490;5.436;2023-03-14T10:10:26;64.12;49.87;81.60;;
70077;Laerm;57448;51.490;5.436;2023-03-14T10:12:31;56.00;49.45;73.28;;
70077;Laerm;57448;51.490;5.436;2023-03-14T10:14:34;57.44;49.91;71.90;;
70077;Laerm;57448;51.490;5.436;2023-03-14T10:16:36;58.85;47.62;76.05;;
70077;Laerm;57448;51.490;5.436;2023-03-14T10:18:41;57.13;48.37;69.70;;
70077;Laerm;57448;51.490;5.436;2023-03-14T10:20:45;56.28;50.28;67.18;;
70077;Laerm;57448;51.490;5.436;2023-03-14T10:22:47;54.47;50.00;60.23;;
70077;Laerm;57448;51.490;5.436;2023-03-14T10:24:52;54.75;50.59;61.80;;
70077;Laerm;57448;51.490;5.436;2023-03-14T10:26:57;54.48;50.82;63.85;;
70077;Laerm;57448;51.490;5.436;2023-03-14T10:29:02;54.69;50.07;62.82;;
70077;Laerm;57448;51.490;5.436;2023-03-14T10:31:03;53.85;50.08;61.78;;
70077;Laerm;57448;51.490;5.436;2023-03-14T10:33:08;54.25;48.57;63.59;;
70077;Laerm;57448;51.490;5.436;2023-03-14T10:35:21;54.11;49.26;74.48;;
70077;Laerm;57448;51.490;5.436;2023-03-14T10:37:24;53.71;48.85;66.84;;
70077;Laerm;57448;51.490;5.436;2023-03-14T10:39:27;54.77;50.11;63.96;;
70077;Laerm;57448;51.490;5.436;2023-03-14T10:41:30;58.51;50.55;74.64;;
70077;Laerm;57448;51.490;5.436;2023-03-14T10:43:33;56.48;49.97;74.63;;
70077;Laerm;57448;51.490;5.436;2023-03-14T10:45:36;54.96;49.92;78.24;;
70077;Laerm;57448;51.490;5.436;2023-03-14T10:47:45;54.65;51.47;64.10;;
70077;Laerm;57448;51.490;5.436;2023-03-14T10:49:48;54.58;49.58;61.85;;
70077;Laerm;57448;51.490;5.436;2023-03-14T10:51:51;54.34;49.74;61.28;;
70077;Laerm;57448;51.490;5.436;2023-03-14T10:53:55;55.65;50.65;66.62;;
70077;Laerm;57448;51.490;5.436;2023-03-14T10:55:57;54.06;50.02;67.99;;
70077;Laerm;57448;51.490;5.436;2023-03-14T10:57:58;54.32;49.26;65.27;;
70077;Laerm;57448;51.490;5.436;2023-03-14T11:00:00;58.57;52.60;76.59;;
70077;Laerm;57448;51.490;5.436;2023-03-14T11:02:07;56.78;50.71;64.13;;
70077;Laerm;57448;51.490;5.436;2023-03-14T11:04:21;53.89;48.53;58.23;;
70077;Laerm;57448;51.490;5.436;2023-03-14T11:06:28;53.30;48.48;63.31;;
70077;Laerm;57448;51.490;5.436;2023-03-14T11:08:36;53.73;49.79;58.56;;
70077;Laerm;57448;51.490;5.436;2023-03-14T11:10:43;53.52;49.55;58.41;;
70077;Laerm;57448;51.490;5.436;2023-03-14T11:12:50;53.80;49.08;60.59;;
70077;Laerm;57448;51.490;5.436;2023-03-14T11:14:54;54.63;48.48;67.66;;
70077;Laerm;57448;51.490;5.436;2023-03-14T11:16:59;55.58;49.04;67.68;;
70077;Laerm;57448;51.490;5.436;2023-03-14T11:19:03;62.20;50.08;71.22;;
70077;Laerm;57448;51.490;5.436;2023-03-14T11:21:11;58.70;49.73;70.16;;
70077;Laerm;57448;51.490;5.436;2023-03-14T11:23:14;53.81;49.37;66.97;;